Time;durP1;ratioP1;P1;durP2;ratioP2;P2;SDS_P1;SDS_P2;PMS_P1;PMS_P2;Temp;Humidity;BMP_temperature;BMP_pressure;BME280_temperature;BME280_humidity;BME280_pressure;Samples;Min_cycle;Max_cycle;Signal;HPM_P1;HPM_P2
2022/09/30 00:01:02;;;;;;;7.38;3.85;;;;;;;;;;5040670;28;20057;-72
2022/09/30 00:03:28;;;;;;;6.38;3.85;;;;;;;;;;5051584;28;20021;-71
2022/09/30 00:06:01;;;;;;;6.90;3.45;;;;;;;;;;5048482;28;20083;-71
2022/09/30 00:08:27;;;;;;;8.05;4.20;;;;;;;;;;5051056;28;20068;-73
2022/09/30 00:11:00;;;;;;;7.90;3.67;;;;;;;;;;5048709;28;20037;-71
2022/09/30 00:13:26;;;;;;;6.18;4.10;;;;;;;;;;5052302;28;20033;-70
2022/09/30 00:15:52;;;;;;;12.20;4.90;;;;;;;;;;5047822;28;20033;-71
2022/09/30 00:18:18;;;;;;;4.15;3.13;;;;;;;;;;5051642;28;20447;-72
2022/09/30 00:20:44;;;;;;;6.88;3.47;;;;;;;;;;5045470;28;20515;-71
2022/09/30 00:23:10;;;;;;;3.60;3.15;;;;;;;;;;5044973;28;20029;-71
2022/09/30 00:25:36;;;;;;;4.13;2.92;;;;;;;;;;5049441;28;20033;-70
2022/09/30 00:28:02;;;;;;;3.78;3.03;;;;;;;;;;5050481;28;20037;-71
2022/09/30 00:30:28;;;;;;;5.45;3.42;;;;;;;;;;5047737;28;20405;-70
2022/09/30 00:32:54;;;;;;;4.40;3.58;;;;;;;;;;5048145;28;20476;-70
2022/09/30 00:35:20;;;;;;;6.13;3.47;;;;;;;;;;5051672;28;20700;-70
2022/09/30 00:37:47;;;;;;;6.50;3.53;;;;;;;;;;5048867;28;20103;-70
2022/09/30 00:40:13;;;;;;;5.93;4.10;;;;;;;;;;5042162;28;20253;-71
2022/09/30 00:42:42;;;;;;;4.90;3.83;;;;;;;;;;5048594;28;20037;-73
2022/09/30 00:45:10;;;;;;;7.30;4.30;;;;;;;;;;5049806;28;20029;-71
2022/09/30 00:47:42;;;;;;;8.23;4.03;;;;;;;;;;5049386;28;20151;-70
2022/09/30 00:50:15;;;;;;;9.20;4.70;;;;;;;;;;5051228;28;20033;-71
2022/09/30 00:52:43;;;;;;;10.05;5.18;;;;;;;;;;5042435;28;20058;-71
2022/09/30 00:55:14;;;;;;;5.82;4.32;;;;;;;;;;5050582;28;20528;-71
2022/09/30 00:57:41;;;;;;;7.57;4.70;;;;;;;;;;5046012;28;20032;-72
2022/09/30 01:00:08;;;;;;;6.18;4.75;;;;;;;;;;5048790;28;20044;-70
2022/09/30 01:02:35;;;;;;;25.65;5.60;;;;;;;;;;5046288;28;20021;-71
2022/09/30 01:05:01;;;;;;;13.77;5.45;;;;;;;;;;5050212;28;20522;-70
2022/09/30 01:07:28;;;;;;;8.30;4.72;;;;;;;;;;5042458;28;20045;-71
2022/09/30 01:09:55;;;;;;;8.75;4.93;;;;;;;;;;5049741;28;20037;-71
2022/09/30 01:12:24;;;;;;;8.77;4.72;;;;;;;;;;5046679;28;20025;-71
2022/09/30 01:14:52;;;;;;;8.32;4.32;;;;;;;;;;5049710;28;20041;-71
2022/09/30 01:17:36;;;;;;;4.65;4.07;;;;;;;;;;5043245;28;20480;-71
2022/09/30 01:20:02;;;;;;;5.30;3.97;;;;;;;;;;5050232;28;20040;-71
2022/09/30 01:22:28;;;;;;;5.43;3.75;;;;;;;;;;5048236;28;20120;-71
2022/09/30 01:24:54;;;;;;;8.88;4.07;;;;;;;;;;5047834;28;20028;-71
2022/09/30 01:27:34;;;;;;;4.85;3.53;;;;;;;;;;5048435;28;20416;-71
2022/09/30 01:30:06;;;;;;;6.28;3.80;;;;;;;;;;5047211;28;20488;-71
2022/09/30 01:32:42;;;;;;;5.05;3.33;;;;;;;;;;5070317;28;20118;-70
2022/09/30 01:35:23;;;;;;;4.68;3.95;;;;;;;;;;5048348;28;20025;-71
2022/09/30 01:38:02;;;;;;;8.70;3.53;;;;;;;;;;5051089;28;20033;-70
2022/09/30 01:40:33;;;;;;;3.30;3.00;;;;;;;;;;5043602;28;20021;-71
2022/09/30 01:42:59;;;;;;;5.80;3.83;;;;;;;;;;5053597;28;20032;-72
2022/09/30 01:45:37;;;;;;;3.20;2.85;;;;;;;;;;5052001;28;20033;-70
2022/09/30 01:48:09;;;;;;;4.53;2.90;;;;;;;;;;5055016;28;20465;-71
2022/09/30 01:50:53;;;;;;;4.25;3.40;;;;;;;;;;5060081;28;20025;-72
2022/09/30 01:53:22;;;;;;;7.07;2.78;;;;;;;;;;5049523;28;20032;-71
2022/09/30 01:55:52;;;;;;;8.15;3.05;;;;;;;;;;5052949;28;20602;-71
2022/09/30 01:58:25;;;;;;;3.05;2.60;;;;;;;;;;5053069;28;20033;-71
2022/09/30 02:00:51;;;;;;;;;;;;;;;;;;5050075;28;20112;-73
2022/09/30 02:03:37;;;;;;;3.50;2.70;;;;;;;;;;5052515;28;20011;-71
2022/09/30 02:06:07;;;;;;;2.90;2.60;;;;;;;;;;5051434;28;20021;-71
2022/09/30 02:08:41;;;;;;;5.82;2.72;;;;;;;;;;5053532;28;20053;-75
2022/09/30 02:11:11;;;;;;;3.53;2.58;;;;;;;;;;5051837;28;20029;-71
2022/09/30 02:13:49;;;;;;;5.20;2.97;;;;;;;;;;5053686;28;20514;-71
2022/09/30 02:16:21;;;;;;;3.45;3.08;;;;;;;;;;5050594;28;20020;-71
2022/09/30 02:18:50;;;;;;;6.03;2.67;;;;;;;;;;5050683;28;20033;-70
2022/09/30 02:21:20;;;;;;;2.42;2.22;;;;;;;;;;5049141;28;20291;-72
2022/09/30 02:23:47;;;;;;;5.88;3.22;;;;;;;;;;5053392;28;20033;-70
2022/09/30 02:26:19;;;;;;;3.45;2.97;;;;;;;;;;5051860;28;20025;-71
2022/09/30 02:28:49;;;;;;;5.93;3.20;;;;;;;;;;5052652;28;20041;-73
2022/09/30 02:31:15;;;;;;;5.07;3.30;;;;;;;;;;5050811;28;20036;-70
2022/09/30 02:33:49;;;;;;;7.55;3.15;;;;;;;;;;5052920;28;20055;-70
2022/09/30 02:36:21;;;;;;;3.35;2.97;;;;;;;;;;5049648;28;20029;-70
2022/09/30 02:38:53;;;;;;;6.75;3.20;;;;;;;;;;5054006;28;20033;-71
2022/09/30 02:41:22;;;;;;;5.80;3.05;;;;;;;;;;5050042;28;20384;-71
2022/09/30 02:43:51;;;;;;;7.05;3.38;;;;;;;;;;5051721;28;20025;-70
2022/09/30 02:46:40;;;;;;;3.97;3.20;;;;;;;;;;5076953;28;20243;-70
2022/09/30 02:49:12;;;;;;;6.90;3.55;;;;;;;;;;5053901;28;20094;-70
2022/09/30 02:51:44;;;;;;;7.47;3.78;;;;;;;;;;5048367;28;20036;-70
2022/09/30 02:54:29;;;;;;;58.78;7.72;;;;;;;;;;5051699;28;20071;-70
2022/09/30 02:57:10;;;;;;;7.95;4.05;;;;;;;;;;5048656;28;20033;-71
2022/09/30 02:59:36;;;;;;;5.20;3.88;;;;;;;;;;5052363;28;20064;-70
2022/09/30 03:02:02;;;;;;;7.68;4.20;;;;;;;;;;5050038;28;20040;-71
2022/09/30 03:04:30;;;;;;;4.70;3.70;;;;;;;;;;5051493;28;20444;-72
2022/09/30 03:06:56;;;;;;;6.32;3.90;;;;;;;;;;5048439;28;20116;-71
2022/09/30 03:09:26;;;;;;;4.35;3.63;;;;;;;;;;5047457;28;20030;-72
2022/09/30 03:11:54;;;;;;;8.02;4.03;;;;;;;;;;5049632;28;20035;-72
2022/09/30 03:14:45;;;;;;;4.45;3.70;;;6.70;99.90;;;;;;5079019;28;20115;-71
2022/09/30 03:17:31;;;;;;;5.07;4.03;;;;;;;;;;5049288;28;20549;-71
2022/09/30 03:19:57;;;;;;;4.40;3.65;;;;;;;;;;5053392;28;20068;-70
2022/09/30 03:22:33;;;;;;;4.30;3.30;;;;;;;;;;5050976;28;20021;-72
2022/09/30 03:25:05;;;;;;;5.72;3.47;;;;;;;;;;5050752;28;20044;-71
2022/09/30 03:27:46;;;;;;;3.72;3.13;;;;;;;;;;5050683;28;20025;-71
2022/09/30 03:30:16;;;;;;;4.93;3.75;;;;;;;;;;5051816;28;20047;-70
2022/09/30 03:33:22;;;;;;;7.93;3.60;;;6.30;99.90;;;;;;5049879;28;20048;-71
2022/09/30 03:36:03;;;;;;;5.40;4.07;;;;;;;;;;5052603;28;20123;-72
2022/09/30 03:38:48;;;;;;;10.45;4.25;;;;;;;;;;5046221;28;20373;-70
2022/09/30 03:41:19;;;;;;;4.55;3.95;;;;;;;;;;5049115;28;20377;-71
2022/09/30 03:43:54;;;;;;;9.75;4.40;;;;;;;;;;5046540;28;20041;-70
2022/09/30 03:46:23;;;;;;;8.57;4.60;;;;;;;;;;5042988;28;20119;-70
2022/09/30 03:48:51;;;;;;;5.78;4.75;;;;;;;;;;5048753;28;20106;-74
2022/09/30 03:51:18;;;;;;;6.65;4.88;;;;;;;;;;5052917;28;20063;-70
2022/09/30 03:53:45;;;;;;;9.98;4.00;;;;;;;;;;5049554;28;20064;-70
2022/09/30 03:56:11;;;;;;;11.10;4.70;;;;;;;;;;5050195;28;20037;-72
2022/09/30 03:58:40;;;;;;;10.20;4.90;;;;;;;;;;5048546;28;20063;-70
2022/09/30 04:01:06;;;;;;;8.27;4.40;;;;;;;;;;5050983;28;20033;-71
2022/09/30 04:03:34;;;;;;;19.45;5.82;;;;;;;;;;5049249;28;20109;-71
2022/09/30 04:06:00;;;;;;;33.70;7.13;;;;;;;;;;5049380;28;20071;-71
2022/09/30 04:08:26;;;;;;;20.95;6.47;;;;;;;;;;5048541;28;20084;-71
2022/09/30 04:10:52;;;;;;;15.00;6.05;;;;;;;;;;5049531;28;20033;-71
2022/09/30 04:13:18;;;;;;;12.50;6.15;;;;;;;;;;5049788;28;20047;-74
2022/09/30 04:15:45;;;;;;;14.90;8.48;;;;;;;;;;5044316;28;20068;-70
2022/09/30 04:18:11;;;;;;;14.00;8.82;;;;;;;;;;5051455;28;20361;-70
2022/09/30 04:20:38;;;;;;;14.10;7.22;;;;;;;;;;5049605;28;20040;-70
2022/09/30 04:23:04;;;;;;;15.38;8.23;;;;;;;;;;5050151;28;20056;-72
2022/09/30 04:25:30;;;;;;;18.27;7.35;;;;;;;;;;5045311;28;20397;-70
2022/09/30 04:27:56;;;;;;;13.88;7.53;;;;;;;;;;5031651;28;20018;-71
2022/09/30 04:30:22;;;;;;;9.95;7.15;;;;;;;;;;5046499;28;20183;-71
2022/09/30 04:32:48;;;;;;;15.27;7.25;;;;;;;;;;5051086;28;20060;-72
2022/09/30 04:35:15;;;;;;;15.50;8.18;;;;;;;;;;5042704;28;20033;-70
2022/09/30 04:37:44;;;;;;;21.63;11.85;;;;;;;;;;5051218;28;20424;-71
2022/09/30 04:40:11;;;;;;;14.95;8.70;;;;;;;;;;5048917;28;20098;-71
2022/09/30 04:42:41;;;;;;;10.77;7.10;;;;;;;;;;5051240;28;20033;-71
2022/09/30 04:45:08;;;;;;;9.77;6.88;;;;;;;;;;5047719;28;20025;-71
2022/09/30 04:47:34;;;;;;;10.40;6.03;;;;;;;;;;5049796;28;20059;-70
2022/09/30 04:50:00;;;;;;;9.05;5.38;;;;;;;;;;5044359;28;20095;-71
2022/09/30 04:52:26;;;;;;;7.55;5.35;;;;;;;;;;5050582;28;20041;-71
2022/09/30 04:54:53;;;;;;;8.70;5.53;;;;;;;;;;5050550;28;20068;-71
2022/09/30 04:57:19;;;;;;;9.70;5.10;;;;;;;;;;5048400;28;20056;-71
2022/09/30 04:59:45;;;;;;;7.68;4.28;;;;;;;;;;5050277;28;20490;-71
2022/09/30 05:02:12;;;;;;;10.27;7.50;;;;;;;;;;5046414;28;20029;-71
2022/09/30 05:04:38;;;;;;;8.18;5.72;;;;;;;;;;5041835;28;20036;-74
2022/09/30 05:07:08;;;;;;;10.80;6.70;;;;;;;;;;5037892;28;20037;-71
2022/09/30 05:09:37;;;;;;;11.15;4.25;;;;;;;;;;5041566;28;20069;-73
2022/09/30 05:12:03;;;;;;;7.45;4.60;;;;;;;;;;5038333;28;20052;-70
2022/09/30 05:14:30;;;;;;;8.05;4.35;;;;;;;;;;5041660;28;20056;-70
2022/09/30 05:16:56;;;;;;;6.43;3.80;;;;;;;;;;5042204;28;20060;-70
2022/09/30 05:19:22;;;;;;;5.55;3.53;;;;;;;;;;5045304;28;20068;-71
2022/09/30 05:21:48;;;;;;;4.85;3.50;;;;;;;;;;5047666;28;20502;-70
2022/09/30 05:24:14;;;;;;;4.13;3.67;;;;;;;;;;5048788;28;20468;-68
2022/09/30 05:26:40;;;;;;;273.85;158.18;;;;;;;;;;5076708;28;20025;-71
2022/09/30 05:29:06;;;;;;;6.15;4.32;;;;;;;;;;5041350;28;20079;-73
2022/09/30 05:31:33;;;;;;;10.18;7.00;;;;;;;;;;5046365;28;20040;-72
2022/09/30 05:33:59;;;;;;;11.18;6.05;;;;;;;;;;5048761;28;20033;-72
2022/09/30 05:36:25;;;;;;;4.68;3.72;;;;;;;;;;5058056;28;20052;-72
2022/09/30 05:38:51;;;;;;;4.07;3.33;;;;;;;;;;5049723;28;20064;-71
2022/09/30 05:41:19;;;;;;;11.55;3.28;;;;;;;;;;5051089;28;20039;-70
2022/09/30 05:43:49;;;;;;;8.27;3.65;;;;;;;;;;5046435;28;20025;-72
2022/09/30 05:46:15;;;;;;;5.85;3.63;;;;;;;;;;5050007;28;20472;-71
2022/09/30 05:48:41;;;;;;;4.82;3.35;;;;;;;;;;5049562;28;20099;-69
2022/09/30 05:51:08;;;;;;;5.05;3.80;;;;;;;;;;5050873;28;20037;-71
2022/09/30 05:53:37;;;;;;;3.83;3.42;;;;;;;;;;5047997;28;20639;-71
2022/09/30 05:56:03;;;;;;;3.97;3.58;;;;;;;;;;5046884;28;20025;-71
2022/09/30 05:58:30;;;;;;;7.80;3.60;;;;;;;;;;5049404;28;20025;-71
2022/09/30 06:00:56;;;;;;;5.57;3.65;;;;;;;;;;5050102;28;20021;-70
2022/09/30 06:03:22;;;;;;;4.80;3.83;;;;;;;;;;5050663;28;20048;-71
2022/09/30 06:05:48;;;;;;;6.05;4.20;;;;;;;;;;5050076;28;20115;-71
2022/09/30 06:08:15;;;;;;;6.10;4.40;;;;;;;;;;5051508;28;20404;-75
2022/09/30 06:10:42;;;;;;;7.18;4.20;;;;;;;;;;5050250;28;20094;-75
2022/09/30 06:13:08;;;;;;;11.70;6.50;;;;;;;;;;5050437;28;20036;-75
2022/09/30 06:15:36;;;;;;;6.90;5.30;;;;;;;;;;5049930;28;20017;-72
2022/09/30 06:18:02;;;;;;;7.00;4.80;;;;;;;;;;5034290;28;20150;-71
2022/09/30 06:20:29;;;;;;;11.82;5.38;;;;;;;;;;5032037;28;20041;-72
2022/09/30 06:22:57;;;;;;;10.13;4.40;;;;;;;;;;5040926;28;20045;-71
2022/09/30 06:25:23;;;;;;;8.40;4.60;;;;;;;;;;5047964;28;20025;-71
2022/09/30 06:27:49;;;;;;;6.95;4.35;;;;;;;;;;5040659;28;20039;-71
2022/09/30 06:30:15;;;;;;;8.15;4.20;;;;;;;;;;5041028;28;20060;-70
2022/09/30 06:32:41;;;;;;;6.93;4.13;;;;;;;;;;5053319;28;20037;-71
2022/09/30 06:35:09;;;;;;;9.68;5.45;;;;;;;;;;5045514;28;20515;-71
2022/09/30 06:37:36;;;;;;;10.32;5.72;;;;;;;;;;5053055;28;20063;-75
2022/09/30 06:40:03;;;;;;;5.85;5.15;;;;;;;;;;5043532;28;20064;-71
2022/09/30 06:42:29;;;;;;;7.82;5.55;;;;;;;;;;5052937;28;20434;-70
2022/09/30 06:44:55;;;;;;;5.47;4.93;;;;;;;;;;5051923;28;20037;-73
2022/09/30 06:47:21;;;;;;;9.15;5.47;;;;;;;;;;5054059;28;20029;-72
2022/09/30 06:49:47;;;;;;;14.57;9.95;;;;;;;;;;5049055;28;20407;-71
2022/09/30 06:52:13;;;;;;;14.25;9.52;;;;;;;;;;5050318;28;20111;-72
2022/09/30 06:54:42;;;;;;;31.63;19.40;;;;;;;;;;5050507;28;20191;-70
2022/09/30 06:57:09;;;;;;;9.27;7.45;;;;;;;;;;5042724;28;20037;-71
2022/09/30 06:59:35;;;;;;;11.10;9.07;;;;;;;;;;5049948;28;20472;-70
2022/09/30 07:02:01;;;;;;;16.23;10.35;;;;;;;;;;5047977;28;20108;-70
2022/09/30 07:04:27;;;;;;;16.65;12.00;;;;;;;;;;5049207;28;20484;-71
2022/09/30 07:06:54;;;;;;;24.70;14.40;;;;;;;;;;5051209;28;20041;-71
2022/09/30 07:09:20;;;;;;;21.23;15.30;;;;;;;;;;5048374;28;20680;-71
2022/09/30 07:11:46;;;;;;;25.55;16.23;;;;;;;;;;5050654;28;20062;-70
2022/09/30 07:14:12;;;;;;;48.78;18.25;;;;;;;;;;5049381;28;20447;-71
2022/09/30 07:16:38;;;;;;;46.42;18.13;;;;;;;;;;5049583;28;20369;-71
2022/09/30 07:19:05;;;;;;;48.33;17.77;;;;;;;;;;5053553;28;20035;-71
2022/09/30 07:21:32;;;;;;;65.95;17.33;;;;;;;;;;5050246;28;20357;-71
2022/09/30 07:23:59;;;;;;;59.15;14.60;;;;;;;;;;5050767;28;20042;-70
2022/09/30 07:26:25;;;;;;;152.23;16.60;;;;;;;;;;5048271;28;20025;-70
2022/09/30 07:28:52;;;;;;;193.40;15.10;;;;;;;;;;5052893;28;20036;-70
2022/09/30 07:31:22;;;;;;;173.15;18.35;;;;;;;;;;5048054;28;20037;-72
2022/09/30 07:33:51;;;;;;;155.70;30.17;;;;;;;;;;5052480;28;20036;-75
2022/09/30 07:36:18;;;;;;;178.63;16.27;;;;;;;;;;5050470;28;20037;-70
2022/09/30 07:38:49;;;;;;;233.23;19.40;;;;;;;;;;5047632;28;20037;-71
2022/09/30 07:41:17;;;;;;;224.77;17.05;;;;;;;;;;5048963;28;20086;-72
2022/09/30 07:43:44;;;;;;;225.68;16.02;;;;;;;;;;5041879;28;21876;-71
2022/09/30 07:46:12;;;;;;;252.32;16.52;;;;;;;;;;5045827;28;20040;-71
2022/09/30 07:48:43;;;;;;;203.52;17.25;;;;;;;;;;5050913;28;20116;-71
2022/09/30 07:51:19;;;;;;;107.57;15.13;;;;;;;;;;5050289;28;20116;-71
2022/09/30 07:53:47;;;;;;;196.15;15.23;;;;;;;;;;5061963;28;20361;-71
2022/09/30 07:56:14;;;;;;;222.65;16.52;;;;;;;;;;5042707;28;20432;-71
2022/09/30 07:58:40;;;;;;;159.93;14.20;;;;;;;;;;5052210;28;20543;-71
2022/09/30 08:01:06;;;;;;;106.63;12.25;;;;;;;;;;5047268;28;20076;-71
2022/09/30 08:03:33;;;;;;;80.00;11.77;;;;;;;;;;5050275;28;20033;-71
2022/09/30 08:06:04;;;;;;;89.63;11.50;;;;;;;;;;5049654;28;20037;-72
2022/09/30 08:08:30;;;;;;;45.28;12.02;;;;;;;;;;5036916;28;20523;-73
2022/09/30 08:10:58;;;;;;;76.75;12.27;;;;;;;;;;5045488;28;20060;-72
2022/09/30 08:13:24;;;;;;;37.65;11.85;;;;;;;;;;5044197;28;20017;-71
2022/09/30 08:15:50;;;;;;;90.90;11.70;;;;;;;;;;5050249;28;20041;-71
2022/09/30 08:18:16;;;;;;;45.58;10.57;;;;;;;;;;5047690;28;20115;-72
2022/09/30 08:20:42;;;;;;;53.72;11.70;;;;;;;;;;5051878;28;20063;-71
2022/09/30 08:23:09;;;;;;;40.63;10.50;;;;;;;;;;5044900;28;20328;-71
2022/09/30 08:25:35;;;;;;;56.95;26.70;;;;;;;;;;5045486;28;20025;-72
2022/09/30 08:28:01;;;;;;;66.15;45.97;;;;;;;;;;5050826;28;20037;-72
2022/09/30 08:30:27;;;;;;;22.45;10.70;;;;;;;;;;5049312;28;20036;-72
2022/09/30 08:32:53;;;;;;;14.05;9.35;;;;;;;;;;5049408;28;20045;-71
2022/09/30 08:35:19;;;;;;;21.33;8.70;;;;;;;;;;5034522;28;20029;-70
2022/09/30 08:37:46;;;;;;;17.00;9.27;;;;;;;;;;5044313;28;20479;-71
2022/09/30 08:40:23;;;;;;;11.18;7.45;;;;;;;;;;5039350;28;20641;-72
2022/09/30 08:43:10;;;;;;;9.35;6.88;;;11.40;99.90;;;;;;5037793;28;20431;-71
2022/09/30 08:45:44;;;;;;;10.38;8.20;;;;;;;;;;5045380;28;20087;-71
2022/09/30 08:48:19;;;;;;;9.55;8.32;;;;;;;;;;5041284;28;20031;-73
2022/09/30 08:51:04;;;;;;;9.48;7.50;;;;;;;;;;5046362;28;20036;-71
2022/09/30 08:53:36;;;;;;;13.80;9.48;;;;;;;;;;5050902;28;20056;-71
2022/09/30 08:56:03;;;;;;;15.50;9.83;;;;;;;;;;5049412;28;20348;-71
2022/09/30 08:58:31;;;;;;;10.90;9.80;;;;;;;;;;5051048;28;20025;-71
2022/09/30 09:01:18;;;;;;;15.93;9.80;;;12.50;99.90;;;;;;5048929;28;20456;-71
2022/09/30 09:03:44;;;;;;;13.52;11.73;;;;;;;;;;5071995;28;20377;-70
2022/09/30 09:06:13;;;;;;;15.93;11.98;;;;;;;;;;5083552;28;20079;-71
2022/09/30 09:08:51;;;;;;;22.15;11.38;;;;;;;;;;5052094;28;20053;-71
2022/09/30 09:11:24;;;;;;;17.88;12.27;;;;;;;;;;5050398;28;20049;-70
2022/09/30 09:13:53;;;;;;;13.38;11.95;;;;;;;;;;5048355;28;20036;-70
2022/09/30 09:16:27;;;;;;;19.30;13.38;;;;;;;;;;5051064;28;20025;-71
2022/09/30 09:18:57;;;;;;;16.13;12.07;;;;;;;;;;5042343;28;20193;-69
2022/09/30 09:21:40;;;;;;;12.25;10.98;;;;;;;;;;5042164;28;20037;-72
2022/09/30 09:24:13;;;;;;;11.00;9.90;;;;;;;;;;5041119;28;20029;-71
2022/09/30 09:26:39;;;;;;;11.30;8.13;;;;;;;;;;5047487;28;20465;-71
2022/09/30 09:29:05;;;;;;;9.10;7.28;;;;;;;;;;5045199;28;20048;-71
2022/09/30 09:31:31;;;;;;;8.10;6.63;;;;;;;;;;5047434;28;20063;-71
2022/09/30 09:34:07;;;;;;;8.52;6.38;;;;;;;;;;5040851;28;21108;-72
2022/09/30 09:37:13;;;;;;;20.48;15.57;;;21.00;99.90;;;;;;5045452;28;20041;-71
2022/09/30 09:39:40;;;;;;;7.78;5.90;;;;;;;;;;5036631;28;20099;-70
2022/09/30 09:42:17;;;;;;;4.85;3.95;;;;;;;;;;5046104;28;20086;-71
2022/09/30 09:44:48;;;;;;;4.32;3.38;;;;;;;;;;5042566;28;20037;-70
2022/09/30 09:47:16;;;;;;;4.28;3.20;;;;;;;;;;5040906;28;20029;-71
2022/09/30 09:49:46;;;;;;;4.60;3.30;;;;;;;;;;5043118;28;20059;-71
2022/09/30 09:52:12;;;;;;;3.40;3.10;;;;;;;;;;5052134;28;20127;-73
2022/09/30 09:54:41;;;;;;;2.65;2.35;;;;;;;;;;5047634;28;20025;-70
2022/09/30 09:57:10;;;;;;;3.03;2.67;;;;;;;;;;5041360;28;20060;-71
2022/09/30 09:59:38;;;;;;;11.68;9.13;;;;;;;;;;5043630;28;20392;-70
2022/09/30 10:02:21;;;;;;;4.30;2.30;;;;;;;;;;5042072;28;20025;-70
2022/09/30 10:04:58;;;;;;;3.30;2.33;;;;;;;;;;5047806;28;20115;-70
2022/09/30 10:07:26;;;;;;;4.55;1.85;;;;;;;;;;5044868;28;20037;-70
2022/09/30 10:10:04;;;;;;;3.28;1.83;;;;;;;;;;5048497;28;20035;-71
2022/09/30 10:12:30;;;;;;;3.67;1.67;;;;;;;;;;5049959;28;20040;-70
2022/09/30 10:15:20;;;;;;;2.40;1.50;;;;;;;;;;5051166;28;20040;-71
2022/09/30 10:17:51;;;;;;;2.03;1.20;;;;;;;;;;5046018;28;20107;-71
2022/09/30 10:20:31;;;;;;;1.73;1.23;;;;;;;;;;5042991;28;20037;-70
2022/09/30 10:23:16;;;;;;;2.17;1.70;;;;;;;;;;5053381;28;20086;-71
2022/09/30 10:25:54;;;;;;;2.33;2.13;;;;;;;;;;5047254;28;20021;-71
2022/09/30 10:28:22;;;;;;;2.22;2.00;;;;;;;;;;5050649;28;20029;-70
2022/09/30 10:30:49;;;;;;;2.70;1.90;;;;;;;;;;5047094;28;20487;-70
2022/09/30 10:33:20;;;;;;;3.90;2.72;;;;;;;;;;5049930;28;20072;-70
2022/09/30 10:35:50;;;;;;;3.50;2.10;;;;;;;;;;5041990;28;20464;-70
2022/09/30 10:38:16;;;;;;;2.92;2.10;;;;;;;;;;5042779;28;20587;-71
2022/09/30 10:40:47;;;;;;;3.67;1.85;;;;;;;;;;5045147;28;20124;-70
2022/09/30 10:43:29;;;;;;;2.92;2.10;;;;;;;;;;5034781;28;20029;-70
2022/09/30 10:45:58;;;;;;;5.25;1.77;;;;;;;;;;5036594;28;20041;-70
2022/09/30 10:48:25;;;;;;;3.03;1.50;;;;;;;;;;5053260;28;20029;-70
2022/09/30 10:50:52;;;;;;;3.67;1.92;;;;;;;;;;5048053;28;20068;-69
2022/09/30 10:53:25;;;;;;;6.15;1.80;;;;;;;;;;5049922;28;20082;-69
2022/09/30 10:55:53;;;;;;;1.95;1.20;;;;;;;;;;5048346;28;20029;-70
2022/09/30 10:58:28;;;;;;;1.90;1.33;;;;;;;;;;5054560;28;20037;-70
2022/09/30 11:00:59;;;;;;;2.25;1.45;;;;;;;;;;5049727;28;20041;-71
2022/09/30 11:03:30;;;;;;;4.35;2.83;;;;;;;;;;5042069;28;20085;-70
2022/09/30 11:05:56;;;;;;;1.48;1.30;;;;;;;;;;5047904;28;20035;-70
2022/09/30 11:08:28;;;;;;;1.95;1.48;;;;;;;;;;5049627;28;20389;-69
2022/09/30 11:11:12;;;;;;;3.20;2.20;;;;;;;;;;5048376;28;20045;-70
2022/09/30 11:13:41;;;;;;;1.98;1.40;;;;;;;;;;5037882;28;20092;-71
2022/09/30 11:16:23;;;;;;;2.28;1.88;;;;;;;;;;5041488;28;20033;-71
2022/09/30 11:18:53;;;;;;;2.65;1.83;;;;;;;;;;5049946;28;20064;-70
2022/09/30 11:21:27;;;;;;;1.50;1.40;;;;;;;;;;5036788;28;20029;-69
2022/09/30 11:23:57;;;;;;;2.13;1.65;;;;;;;;;;5050598;28;20468;-70
2022/09/30 11:26:29;;;;;;;3.13;1.50;;;;;;;;;;5049811;28;20025;-70
2022/09/30 11:29:14;;;;;;;1.58;1.38;;;;;;;;;;5052933;28;20364;-70
2022/09/30 11:31:48;;;;;;;2.65;1.30;;;;;;;;;;5047965;28;20045;-69
2022/09/30 11:34:23;;;;;;;3.28;1.10;;;;;;;;;;5042364;28;20068;-69
2022/09/30 11:36:56;;;;;;;1.48;1.10;;;;;;;;;;5051603;28;20025;-69
2022/09/30 11:39:22;;;;;;;;;;;;;;;;;;5053302;28;20041;-69
2022/09/30 11:41:54;;;;;;;1.65;1.20;;;;;;;;;;5051291;28;19940;-70
2022/09/30 11:44:31;;;;;;;1.55;0.80;;;;;;;;;;5037695;28;20028;-69
2022/09/30 11:47:00;;;;;;;1.30;1.10;;;;;;;;;;5048025;28;20021;-70
2022/09/30 11:50:05;;;;;;;2.05;1.20;;;;;;;;;;5046871;28;20433;-69
2022/09/30 11:52:34;;;;;;;2.83;1.90;;;;;;;;;;5015478;28;20033;-69
2022/09/30 11:55:05;;;;;;;2.53;1.00;;;;;;;;;;5026770;28;20034;-69
2022/09/30 11:57:42;;;;;;;1.48;1.27;;;;;;;;;;5037995;28;20033;-70
2022/09/30 12:00:14;;;;;;;2.25;1.10;;;;;;;;;;5035750;28;20075;-69
2022/09/30 12:02:46;;;;;;;2.67;1.00;;;;;;;;;;5052471;28;20029;-69
2022/09/30 12:05:24;;;;;;;3.78;0.98;;;;;;;;;;5052759;28;20106;-69
2022/09/30 12:07:53;;;;;;;1.95;1.25;;;;;;;;;;5051183;28;20098;-70
2022/09/30 12:10:24;;;;;;;3.88;1.77;;;;;;;;;;5056921;28;20368;-70
2022/09/30 12:12:53;;;;;;;1.77;1.00;;;;;;;;;;5050630;28;20106;-73
2022/09/30 12:15:22;;;;;;;2.30;1.40;;;;;;;;;;5051773;28;20029;-70
2022/09/30 12:17:50;;;;;;;1.90;1.10;;;;;;;;;;5051572;28;20082;-70
2022/09/30 12:20:26;;;;;;;1.83;0.90;;;;;;;;;;5051916;28;20020;-70
2022/09/30 12:22:54;;;;;;;0.98;0.85;;;;;;;;;;5049824;28;20029;-69
2022/09/30 12:25:23;;;;;;;3.00;0.90;;;;;;;;;;5051005;28;20026;-71
2022/09/30 12:30:15;;;;;;;1.48;0.70;;;;;;;;;;5051332;28;20028;-69
2022/09/30 12:30:55;;;;;;;3.90;1.15;;;;;;;;;;5041097;28;20040;-70
2022/09/30 12:33:27;;;;;;;1.27;1.17;;;;;;;;;;5050894;28;20067;-69
2022/09/30 12:36:06;;;;;;;2.10;1.58;;;;;;;;;;5050221;28;20107;-71
2022/09/30 12:38:50;;;;;;;2.53;1.67;;;;;;;;;;5051141;28;20031;-69
2022/09/30 12:41:25;;;;;;;1.67;1.58;;;;;;;;;;5049862;28;20064;-69
2022/09/30 12:44:00;;;;;;;3.08;1.90;;;;;;;;;;5051072;28;20539;-69
2022/09/30 12:46:54;;;;;;;2.08;1.88;;;19.60;99.90;;;;;;5048414;28;20025;-70
2022/09/30 12:49:22;;;;;;;3.33;1.98;;;;;;;;;;5051038;28;20032;-70
2022/09/30 12:51:59;;;;;;;2.70;1.88;;;;;;;;;;5044396;28;20029;-70
2022/09/30 12:54:31;;;;;;;3.45;2.17;;;;;;;;;;5048946;28;20103;-70
2022/09/30 12:57:02;;;;;;;1.88;1.65;;;;;;;;;;5051249;28;20017;-70
2022/09/30 12:59:30;;;;;;;3.40;2.15;;;;;;;;;;5049984;28;20029;-69
2022/09/30 13:01:57;;;;;;;2.38;1.75;;;;;;;;;;5049774;28;20029;-69
2022/09/30 13:04:33;;;;;;;3.10;1.60;;;;;;;;;;5048798;28;20313;-71
2022/09/30 13:06:59;;;;;;;4.22;1.48;;;;;;;;;;5050870;28;20079;-73
2022/09/30 13:09:28;;;;;;;3.53;1.60;;;;;;;;;;5050791;28;20510;-70
2022/09/30 13:11:54;;;;;;;2.42;1.60;;;;;;;;;;5049995;28;20467;-70
2022/09/30 13:14:32;;;;;;;2.47;1.50;;;;;;;;;;5032981;28;20064;-69
2022/09/30 13:16:59;;;;;;;3.85;1.30;;;;;;;;;;5045957;28;20029;-70
2022/09/30 13:19:35;;;;;;;3.22;1.63;;;;;;;;;;5049197;28;20025;-71
2022/09/30 13:22:19;;;;;;;5.32;1.63;;;;;;;;;;5047045;28;20078;-69
2022/09/30 13:25:03;;;;;;;2.85;1.50;;;;;;;;;;5050563;28;20036;-70
2022/09/30 13:27:36;;;;;;;1.83;1.33;;;;;;;;;;5049902;28;20009;-70
2022/09/30 13:30:23;;;;;;;;;;;18.30;99.90;;;;;;5042183;28;20032;-70
2022/09/30 13:32:56;;;;;;;5.35;1.90;;;;;;;;;;5048551;28;19954;-68
2022/09/30 13:35:25;;;;;;;2.45;2.25;;;;;;;;;;5053133;28;20025;-69
2022/09/30 13:38:10;;;;;;;3.90;1.65;;;;;;;;;;5041870;28;20100;-69
2022/09/30 13:40:36;;;;;;;2.83;1.90;;;;;;;;;;5043411;28;20053;-70
2022/09/30 13:43:03;;;;;;;2.17;1.98;;;;;;;;;;5039853;28;20028;-70
2022/09/30 13:45:34;;;;;;;3.28;2.33;;;;;;;;;;5044104;28;20476;-70
2022/09/30 13:48:06;;;;;;;4.00;2.13;;;;;;;;;;5047129;28;20698;-70
2022/09/30 13:50:38;;;;;;;28.45;19.90;;;;;;;;;;5042283;28;20052;-70
2022/09/30 13:53:06;;;;;;;11.13;7.72;;;;;;;;;;5053035;28;20509;-70
2022/09/30 13:55:52;;;;;;;3.13;1.77;;;;;;;;;;5052737;28;20052;-70
2022/09/30 13:58:38;;;;;;;3.58;2.08;;;;;;;;;;5043921;28;20017;-69
2022/09/30 14:01:07;;;;;;;3.05;1.95;;;;;;;;;;5044622;28;20029;-69
2022/09/30 14:03:39;;;;;;;2.10;1.30;;;;;;;;;;5048677;28;20059;-70
2022/09/30 14:06:14;;;;;;;5.50;1.70;;;;;;;;;;5044854;28;20020;-70
2022/09/30 14:08:47;;;;;;;3.17;1.83;;;;;;;;;;5046626;28;20037;-70
2022/09/30 14:11:32;;;;;;;5.35;1.23;;;;;;;;;;5051129;28;20464;-69
2022/09/30 14:13:58;;;;;;;4.03;1.73;;;;;;;;;;5051180;28;20057;-70
2022/09/30 14:16:39;;;;;;;2.50;1.20;;;;;;;;;;5049988;28;20149;-69
2022/09/30 14:19:23;;;;;;;3.15;1.20;;;;;;;;;;5040534;28;20025;-69
2022/09/30 14:21:57;;;;;;;1.90;0.77;;;;;;;;;;5047809;28;20494;-69
2022/09/30 14:24:27;;;;;;;1.48;0.75;;;;;;;;;;5051184;28;20494;-69
2022/09/30 14:27:08;;;;;;;5.72;1.10;;;;;;;;;;5048424;28;20086;-68
2022/09/30 14:29:37;;;;;;;3.72;1.02;;;;;;;;;;5052241;28;20049;-70
2022/09/30 14:32:11;;;;;;;2.70;0.82;;;;;;;;;;5052735;28;20037;-70
2022/09/30 14:34:37;;;;;;;1.50;0.73;;;;;;;;;;5084901;28;20033;-69
2022/09/30 14:37:04;;;;;;;6.25;1.10;;;;;;;;;;5047051;28;20100;-69
2022/09/30 14:39:31;;;;;;;2.88;1.35;;;;;;;;;;5050191;28;20031;-69
2022/09/30 14:42:01;;;;;;;1.13;0.60;;;;;;;;;;5045635;28;20482;-69
2022/09/30 14:44:30;;;;;;;1.38;0.52;;;;;;;;;;5053725;28;20112;-69
2022/09/30 14:47:00;;;;;;;1.75;0.82;;;;;;;;;;5052481;28;20071;-69
2022/09/30 14:49:31;;;;;;;3.33;0.93;;;;;;;;;;5050717;28;20033;-69
2022/09/30 14:51:59;;;;;;;2.08;0.90;;;;;;;;;;5051376;28;20025;-69
2022/09/30 14:54:27;;;;;;;1.83;0.95;;;;;;;;;;5043116;28;20029;-69
2022/09/30 14:56:54;;;;;;;6.20;0.85;;;;;;;;;;5053880;28;20021;-70